This is the latest recevied weather packets stored in our database for station/object LROD. If no packets are shown the sender has not sent any weather packets the latest 1 day(s).
| Time | Temp. | Humidity | Pressure | Rain* | Wind** | Luminosity | Snow |
|---|---|---|---|---|---|---|---|
| 1836274128 | 15° C | 88% | 1026 hPa | - | 3.13 m/s, 90° | - | - |
| 1778034809 | 11.11° C | 67% | 1012 hPa | - | 3.13 m/s, 100° | - | - |
| 1778033909 | 11.11° C | 67% | 1012 hPa | - | 2.24 m/s, 110° | - | - |
| 1778033009 | 11.11° C | 67% | 1012 hPa | - | 2.24 m/s, 110° | - | - |
| 1778030310 | 12.22° C | 58% | 1012 hPa | - | 2.68 m/s, 180° | - | - |
| 1778029409 | 12.22° C | 58% | 1012 hPa | - | 2.68 m/s, 180° | - | - |
| 1778028509 | 11.11° C | 62% | 1012 hPa | - | 1.34 m/s, 150° | - | - |
| 1778027688 | 11.11° C | 62% | 1012 hPa | - | 1.34 m/s, 150° | - | - |
| 1778026710 | 11.11° C | 62% | 1012 hPa | - | 1.34 m/s, 270° | - | - |
| 1778025810 | 11.11° C | 62% | 1012 hPa | - | 1.34 m/s, 270° | - | - |
| 1778023109 | 15° C | 48% | 1011 hPa | - | 3.58 m/s, 100° | - | - |
| 1778022210 | 15° C | 48% | 1011 hPa | - | 3.58 m/s, 100° | - | - |
| 1778021309 | 15° C | 48% | 1011 hPa | - | 4.02 m/s, 100° | - | - |
| 1778020409 | 15° C | 48% | 1011 hPa | - | 4.02 m/s, 100° | - | - |
| 1778019506 | 15° C | 48% | 1011 hPa | - | 3.58 m/s, 110° | - | - |
| 1778018609 | 15° C | 48% | 1011 hPa | - | 3.58 m/s, 110° | - | - |
| 1778017710 | 16.11° C | 45% | 1011 hPa | - | 3.13 m/s, 110° | - | - |
| 1778016809 | 16.11° C | 45% | 1011 hPa | - | 3.13 m/s, 110° | - | - |
| 1778015909 | 16.11° C | 42% | 1011 hPa | - | 3.58 m/s, 100° | - | - |
| 1778015009 | 16.11° C | 42% | 1011 hPa | - | 3.58 m/s, 100° | - | - |
| 1778014111 | 17.22° C | 39% | 1011 hPa | - | 3.13 m/s, 110° | - | - |
| 1778013209 | 17.22° C | 39% | 1011 hPa | - | 3.13 m/s, 110° | - | - |
| 1778012340 | 18.89° C | 32% | 1011 hPa | - | 3.13 m/s, 140° | - | - |
| 1778011410 | 18.89° C | 32% | 1011 hPa | - | 3.13 m/s, 140° | - | - |
| 1778010509 | 17.22° C | 37% | 1011 hPa | - | 2.68 m/s, 140° | - | - |
* Rain since midnight (hover to see other rain measurements)
** Current wind speed in m/s (hover to see current wind gust speed)